Barendrecht, Netherlands

12:00 AM CEST on September 05, 2015 (GMT +0200)
IZUIDHOL99 | | Change Station
CLOSE
Current Station
Personal Weather Station
Location: Heerjansdam, ZUID-HOLLAND
Elevation: 0 ft
Nearby Weather Stations

Elev 0 ft 51.84 °N, 4.57 °E | Updated 4 minutes ago

Mostly Cloudy
Mostly Cloudy
57.1 °F
Feels Like 57.1 °F
N
2.0
Wind Variable Wind from West
Gusts 3.0 mph

Today
High -- | Low -- °F
--% Chance of Precip.
Yesterday
High -- | Low -- °F
Precip. -- in
6:59 AM 8:20 PM
Waning Gibbous, 55% visible
Pressure 29.92 in
Visibility 6.2 miles
Clouds Few 1500 ft
Scattered Clouds 2100 ft
Mostly Cloudy 3200 ft
Dew Point 56 °F
Humidity 96%
Rainfall in
Snow Depth Not available.
UV 0 out of 12
Pollen Not available.
Air Quality Not available.
Flu Activity Not available.
METAR EHRD 042155Z AUTO 28003KT 250V340 9999 FEW015CB SCT021 BKN032 14/13 Q1013 TEMPO 7000 -SHRA
Pressure 29.92 in
Visibility 6.2 miles
Clouds Few 1500 ft
Scattered Clouds 2100 ft
Mostly Cloudy 3200 ft
Dew Point 56 °F
Humidity 96%
Rainfall in
Snow Depth Not available.
UV 0 out of 12
Pollen Not available.
Air Quality Not available.
Flu Activity Not available.
METAR EHRD 042155Z AUTO 28003KT 250V340 9999 FEW015CB SCT021 BKN032 14/13 Q1013 TEMPO 7000 -SHRA

10-Day Weather Forecast

×

Almanac

Astronomy

Sep. 05, 2015 Rise Set
Actual Time
Civil Twilight
Nautical Twilight
Astronomical Twilight
Moon
Length of Visible Light
Length of Day
Tomorrow will be .
, % of the Moon is Illuminated

Today's Extremes

Country Highs Country Lows

Community

WunderPhotos

Upload Photos

1,852,305 photos uploaded!

WunderBlogs® & News

Nearby

Air Quality

  Air Quality AQ Index Pollutant
Not available.

Snow Depth

Station Depth Elevation

Earthquake Activity

City Distance Mag. Time & Date
Minimum magnitude displayed is 2.5.

Coastal Water Temperatures

Place Temperature

Stations

Nearby Weather Stations

Station Location Temp. Windchill Dew Point Humidity Wind Precip. Elev Updated Type